메인 페이지
METAR-TAF:

METAR-TAF

공항 :

Soyo, 앙골라

위도: 6-8-28S, 경도: 12-22-19E, 고도: 5m

METAR: 누락

시각: 12:28 (11:28 UTC)

예보

예보는 12 시간 28분 전, 23:00시(UTC)에 발표되었습니다.
예보 대상 시간: 24일 00시부터 24일 12시까지 (UTC)
7kt
시정: 7000m
고도 1700ft 상공 구름 보통

TAF: FNSO 232300Z 2400/2412 19007KT 7000 SCT017

4,000개 이상의 공항 관측 자료 및 예보 (METAR 및 TAF 보고).

지도상에서 검색 가능한 기상관측소가 노란 점과 빨간 점으로 표시되어 있습니다.

기상관측소 명을 보려면 표시 위로 마우스를 이동하세요.

날씨 관측과 예보를 보려면 클릭하세요.

지도 변경 : 확대하려면 엑스 표시가 있는 녹색 버튼, 축소하려면 빼기 표시가 있는 녹색 버튼, 다음 페이지의 지도를 보려면 녹색 화살표를 클릭하세요.


METAR-TAF: